Terminal Aerodrome Forecast
Issued by NWS Shreveport, LA

Home | Current Version | Previous Version | Text Only | Print | Product List | Glossary On
Versions: 1 2 3 4 5 6 7 8 9 10 11 12 13 14 15 16 17 18 19 20 21 22
000
FTUS44 KSHV 022338
TAFMLU
TAF
KMLU 022338Z 0300/0324 35004KT P6SM OVC013
     FM030300 36003KT P6SM BKN020
     FM031000 36003KT 6SM BR BKN015
     FM031500 36007KT P6SM BKN020
     FM031800 35007KT P6SM BKN030
     FM032000 35009KT P6SM BKN040=

USA.gov is the U.S. government's official web portal to all federal, state and local government web resources and services.